Time;durP1;ratioP1;P1;durP2;ratioP2;P2;SDS_P1;SDS_P2;PMS_P1;PMS_P2;Temp;Humidity;BMP_temperature;BMP_pressure;BME280_temperature;BME280_humidity;BME280_pressure;Samples;Min_cycle;Max_cycle;Signal;HPM_P1;HPM_P2
2021/11/04 00:00:43;;;;;;;1.23;1.00;;;9.40;86.00;;;;;;5034666;28;20049;-80
2021/11/04 00:03:09;;;;;;;2.75;0.93;;;9.50;86.00;;;;;;5034337;28;20504;-79
2021/11/04 00:05:35;;;;;;;1.77;0.45;;;9.50;85.90;;;;;;5034382;28;20026;-80
2021/11/04 00:08:04;;;;;;;1.35;0.40;;;9.60;86.00;;;;;;5017077;28;20029;-80
2021/11/04 00:10:31;;;;;;;1.45;0.57;;;9.60;85.60;;;;;;5034359;28;20454;-80
2021/11/04 00:12:57;;;;;;;1.58;1.48;;;9.60;85.60;;;;;;5034397;28;20032;-80
2021/11/04 00:15:23;;;;;;;2.00;0.85;;;9.60;85.70;;;;;;5034678;28;20092;-80
2021/11/04 00:17:49;;;;;;;1.08;0.88;;;9.70;85.70;;;;;;5034267;28;20043;-80
2021/11/04 00:20:17;;;;;;;2.72;1.20;;;9.70;85.60;;;;;;5034268;28;20368;-80
2021/11/04 00:22:43;;;;;;;2.30;0.77;;;9.70;85.50;;;;;;5034256;28;20136;-80
2021/11/04 00:25:09;;;;;;;1.88;1.00;;;9.70;85.50;;;;;;5034372;28;20091;-80
2021/11/04 00:27:36;;;;;;;0.57;0.57;;;9.80;85.40;;;;;;5034178;28;20025;-80
2021/11/04 00:30:04;;;;;;;1.77;0.88;;;9.80;85.40;;;;;;5032484;28;20037;-80
2021/11/04 00:32:30;;;;;;;1.65;0.60;;;9.80;85.10;;;;;;5033598;28;20026;-80
2021/11/04 00:34:55;;;;;;;1.77;0.95;;;9.90;85.10;;;;;;5033926;28;20036;-80
2021/11/04 00:37:21;;;;;;;1.80;1.13;;;9.90;85.10;;;;;;5033730;28;20040;-80
2021/11/04 00:39:47;;;;;;;0.98;0.68;;;9.90;84.90;;;;;;5034246;28;20052;-80
2021/11/04 00:42:13;;;;;;;0.93;0.80;;;9.90;84.70;;;;;;5034001;28;20029;-80
2021/11/04 00:44:39;;;;;;;1.10;0.35;;;10.00;84.70;;;;;;5033854;28;20477;-80
2021/11/04 00:47:05;;;;;;;1.20;0.60;;;10.00;84.60;;;;;;5033985;28;20053;-80
2021/11/04 00:49:30;;;;;;;0.85;0.50;;;10.00;84.60;;;;;;5033530;28;20025;-80
2021/11/04 00:51:56;;;;;;;0.57;0.40;;;10.00;84.60;;;;;;5033557;28;20530;-80
2021/11/04 00:54:22;;;;;;;1.83;0.73;;;10.10;84.60;;;;;;5033650;28;20021;-80
2021/11/04 00:56:48;;;;;;;2.80;0.80;;;10.10;84.60;;;;;;5033614;28;20119;-80
2021/11/04 00:59:14;;;;;;;1.65;1.23;;;10.20;84.40;;;;;;5033769;28;20025;-79
2021/11/04 01:01:39;;;;;;;0.68;0.40;;;10.20;84.30;;;;;;5048884;28;20025;-80
2021/11/04 01:04:05;;;;;;;1.33;0.50;;;10.20;84.10;;;;;;5033406;28;20121;-80
2021/11/04 01:06:31;;;;;;;0.88;0.70;;;10.20;84.10;;;;;;5048911;28;20029;-80
2021/11/04 01:08:57;;;;;;;0.30;0.20;;;10.30;84.10;;;;;;5049594;28;20041;-80
2021/11/04 01:11:23;;;;;;;2.75;0.70;;;10.30;84.10;;;;;;5033501;28;20032;-80
2021/11/04 01:13:50;;;;;;;1.08;0.63;;;10.30;83.90;;;;;;5033606;28;20034;-80
2021/11/04 01:16:16;;;;;;;1.85;0.43;;;10.30;84.00;;;;;;5033206;28;20029;-79
2021/11/04 01:18:42;;;;;;;1.65;0.60;;;10.40;83.90;;;;;;5033611;28;20383;-80
2021/11/04 01:21:09;;;;;;;2.10;0.93;;;10.40;83.80;;;;;;5033823;28;20105;-79
2021/11/04 01:23:35;;;;;;;3.05;1.30;;;10.50;83.90;;;;;;5033402;28;20101;-80
2021/11/04 01:26:01;;;;;;;2.50;1.00;;;10.60;83.90;;;;;;5033615;28;20060;-80
2021/11/04 01:28:26;;;;;;;2.40;1.00;;;10.60;83.80;;;;;;5033168;28;20032;-80
2021/11/04 01:30:52;;;;;;;2.30;1.63;;;10.70;83.90;;;;;;5033483;28;20048;-80
2021/11/04 01:33:18;;;;;;;2.15;1.70;;;10.70;83.90;;;;;;5049117;28;20029;-80
2021/11/04 01:35:44;;;;;;;3.00;1.52;;;10.70;83.90;;;;;;5048693;28;20041;-80
2021/11/04 01:38:09;;;;;;;2.83;1.05;;;10.80;83.80;;;;;;5033123;28;20029;-80
2021/11/04 01:40:36;;;;;;;2.25;1.25;;;10.80;83.70;;;;;;5033334;28;20034;-80
2021/11/04 01:43:02;;;;;;;1.85;0.90;;;10.90;83.80;;;;;;5033131;28;20030;-80
2021/11/04 01:45:28;;;;;;;1.00;0.52;;;10.90;83.80;;;;;;5034334;28;20083;-80
2021/11/04 01:47:54;;;;;;;3.65;1.27;;;10.90;83.70;;;;;;5037121;28;20033;-80
2021/11/04 01:50:22;;;;;;;2.20;1.15;;;10.90;83.30;;;;;;5037322;28;20032;-81
2021/11/04 01:52:49;;;;;;;2.92;1.80;;;10.90;82.80;;;;;;5036804;28;20030;-80
2021/11/04 01:55:18;;;;;;;3.15;1.85;;;10.90;82.40;;;;;;5037245;28;20033;-80
2021/11/04 01:57:44;;;;;;;2.17;1.40;;;10.80;82.30;;;;;;5037185;28;20091;-80
2021/11/04 02:00:12;;;;;;;4.22;2.10;;;10.70;82.30;;;;;;5036958;28;20026;-80
2021/11/04 02:02:45;;;;;;;3.00;1.70;;;10.70;82.30;;;;;;5036748;28;20037;-80
2021/11/04 02:05:16;;;;;;;2.83;0.90;;;10.60;82.00;;;;;;5036972;28;20029;-80
2021/11/04 02:08:06;;;;;;;3.05;1.15;;;10.50;81.90;;;;;;5036781;28;20060;-80
2021/11/04 02:10:42;;;;;;;1.08;0.57;;;10.40;82.00;;;;;;5036102;28;20079;-80
2021/11/04 02:13:53;;;;;;;3.08;1.25;;;10.30;82.40;;;;;;5036885;28;20436;-80
2021/11/04 02:16:22;;;;;;;2.70;1.00;;;10.30;82.60;;;;;;5017386;28;20501;-80
2021/11/04 02:18:50;;;;;;;2.40;1.48;;;10.30;82.40;;;;;;5036267;28;20354;-80
2021/11/04 02:21:38;;;;;;;2.00;1.15;;;10.30;82.10;;;;;;5051881;28;20461;-80
2021/11/04 02:24:11;;;;;;;2.95;1.85;;;10.20;82.10;;;;;;5036497;28;20031;-80
2021/11/04 02:26:37;;;;;;;1.60;1.30;;;10.20;82.00;;;;;;5036304;28;20380;-80
2021/11/04 02:29:05;;;;;;;0.85;0.40;;;10.10;82.00;;;;;;5036385;28;20029;-80
2021/11/04 02:31:33;;;;;;;3.78;1.65;;;10.10;82.20;;;;;;5036395;28;20022;-80
2021/11/04 02:33:59;;;;;;;2.88;1.48;;;10.10;82.40;;;;;;5036310;28;20033;-79
2021/11/04 02:36:25;;;;;;;3.25;1.45;;;10.10;82.30;;;;;;5051198;28;20068;-80
2021/11/04 02:38:51;;;;;;;5.80;2.72;;;10.10;82.10;;;;;;5036315;28;20045;-80
2021/11/04 02:41:18;;;;;;;4.13;2.22;;;10.10;81.80;;;;;;5036366;28;20401;-80
2021/11/04 02:43:44;;;;;;;4.72;2.17;;;10.00;81.80;;;;;;5035995;28;20032;-80
2021/11/04 02:46:12;;;;;;;5.25;2.05;;;9.90;82.00;;;;;;5035777;28;20397;-80
2021/11/04 02:48:40;;;;;;;4.30;2.38;;;9.90;82.20;;;;;;5036166;28;20025;-80
2021/11/04 02:51:06;;;;;;;4.78;2.30;;;9.90;82.50;;;;;;5036132;28;20033;-80
2021/11/04 02:53:32;;;;;;;3.90;1.95;;;9.90;82.50;;;;;;5034642;28;20412;-80
2021/11/04 02:55:58;;;;;;;5.18;2.70;;;9.90;82.50;;;;;;5035735;28;20041;-80
2021/11/04 02:58:26;;;;;;;4.22;2.15;;;9.90;82.90;;;;;;5035863;28;20499;-80
2021/11/04 03:00:58;;;;;;;4.65;2.60;;;9.90;82.90;;;;;;5035859;28;20461;-80
2021/11/04 03:03:24;;;;;;;5.80;2.72;;;9.90;82.80;;;;;;5035943;28;20083;-80
2021/11/04 03:05:49;;;;;;;3.22;1.67;;;9.80;82.90;;;;;;5035454;28;20473;-80
2021/11/04 03:08:15;;;;;;;3.30;1.70;;;9.80;83.20;;;;;;5035633;28;20104;-80
2021/11/04 03:10:41;;;;;;;5.30;2.88;;;9.80;83.30;;;;;;5035327;28;20026;-79
2021/11/04 03:13:07;;;;;;;4.78;2.08;;;9.80;82.90;;;;;;5035293;28;20079;-79
2021/11/04 03:15:55;;;;;;;4.75;2.70;;;9.80;83.20;;;;;;5035545;28;20057;-80
2021/11/04 03:18:22;;;;;;;2.85;1.65;;;9.80;83.10;;;;;;5035540;28;20116;-80
2021/11/04 03:20:49;;;;;;;4.03;1.70;;;9.70;83.00;;;;;;5035421;28;20025;-80
2021/11/04 03:23:16;;;;;;;1.42;1.10;;;9.70;83.40;;;;;;5035528;28;20545;-80
2021/11/04 03:25:45;;;;;;;2.85;1.38;;;9.70;83.50;;;;;;5035361;28;20026;-80
2021/11/04 03:28:12;;;;;;;3.20;1.20;;;9.70;83.70;;;;;;5050720;28;20366;-80
2021/11/04 03:30:39;;;;;;;1.55;0.68;;;9.70;84.00;;;;;;5035213;28;20032;-80
2021/11/04 03:33:07;;;;;;;1.50;1.20;;;9.80;84.20;;;;;;5035426;28;20026;-80
2021/11/04 03:35:36;;;;;;;2.47;0.90;;;9.80;84.00;;;;;;5035097;28;20076;-80
2021/11/04 03:38:07;;;;;;;3.58;1.67;;;9.90;84.00;;;;;;5034667;28;20477;-80
2021/11/04 03:40:34;;;;;;;2.42;1.70;;;9.90;84.00;;;;;;5034553;28;20033;-80
2021/11/04 03:43:01;;;;;;;1.88;1.00;;;9.90;84.20;;;;;;5035277;28;20369;-80
2021/11/04 03:45:27;;;;;;;1.85;0.65;;;10.00;84.30;;;;;;5034943;28;20021;-81
2021/11/04 03:47:54;;;;;;;0.90;0.40;;;10.10;84.50;;;;;;5050309;28;20172;-80
2021/11/04 03:50:23;;;;;;;1.83;0.55;;;10.10;84.60;;;;;;5050277;28;20030;-80
2021/11/04 03:52:49;;;;;;;2.25;0.77;;;10.20;84.70;;;;;;5035300;28;20029;-80
2021/11/04 03:55:17;;;;;;;2.50;1.02;;;10.30;84.50;;;;;;5034493;28;20366;-80
2021/11/04 03:57:45;;;;;;;1.50;1.13;;;10.30;84.10;;;;;;5034640;28;20029;-80
2021/11/04 04:00:13;;;;;;;1.98;0.90;;;10.30;83.90;;;;;;5034706;28;20029;-80
2021/11/04 04:02:40;;;;;;;1.50;0.60;;;10.40;83.80;;;;;;5034504;28;20034;-80
2021/11/04 04:05:06;;;;;;;0.98;0.60;;;10.40;83.50;;;;;;5034553;28;20033;-80
2021/11/04 04:07:33;;;;;;;1.67;0.85;;;10.40;83.50;;;;;;5034102;28;20072;-80
2021/11/04 04:09:59;;;;;;;2.15;1.15;;;10.40;83.40;;;;;;5034545;28;20117;-80
2021/11/04 04:12:26;;;;;;;1.08;0.80;;;10.30;83.20;;;;;;5034475;28;20036;-80
2021/11/04 04:14:51;;;;;;;0.50;0.40;;;10.30;83.10;;;;;;5033883;28;20037;-80
2021/11/04 04:17:20;;;;;;;1.50;0.90;;;10.30;83.60;;;;;;5034370;28;20030;-80
2021/11/04 04:19:46;;;;;;;1.85;0.55;;;10.30;83.80;;;;;;5034219;28;20447;-80
2021/11/04 04:22:12;;;;;;;1.08;0.73;;;10.30;83.90;;;;;;5034611;28;20109;-80
2021/11/04 04:24:37;;;;;;;0.63;0.40;;;10.30;84.10;;;;;;5033883;28;20380;-80
2021/11/04 04:27:03;;;;;;;0.63;0.25;;;10.30;84.10;;;;;;5034269;28;20108;-80
2021/11/04 04:29:29;;;;;;;0.43;0.30;;;10.30;84.10;;;;;;5034135;28;20022;-81
2021/11/04 04:31:55;;;;;;;0.10;0.05;;;10.40;84.50;;;;;;5034006;28;20048;-80
2021/11/04 04:34:22;;;;;;;0.00;0.00;;;10.40;84.70;;;;;;5034156;28;20056;-80
2021/11/04 04:36:47;;;;;;;0.40;0.20;;;10.50;84.80;;;;;;5033696;28;20112;-80
2021/11/04 04:39:13;;;;;;;0.30;0.13;;;10.60;84.60;;;;;;5034329;28;20458;-80
2021/11/04 04:41:39;;;;;;;0.22;0.15;;;10.70;84.30;;;;;;5034004;28;20037;-80
2021/11/04 04:44:05;;;;;;;0.28;0.20;;;10.70;84.10;;;;;;5035267;28;20025;-79
2021/11/04 04:46:30;;;;;;;0.25;0.25;;;10.80;84.00;;;;;;5033931;28;20448;-80
2021/11/04 04:48:56;;;;;;;0.52;0.25;;;10.80;83.90;;;;;;5033709;28;20480;-79
2021/11/04 04:51:22;;;;;;;0.22;0.20;;;10.90;83.90;;;;;;5033639;28;20029;-79
2021/11/04 04:53:47;;;;;;;0.40;0.22;;;10.90;83.80;;;;;;5033891;28;20160;-79
2021/11/04 04:56:13;;;;;;;0.43;0.40;;;11.00;83.70;;;;;;5033750;28;20045;-80
2021/11/04 04:58:39;;;;;;;0.08;0.00;;;11.00;83.60;;;;;;5033760;28;20525;-79
2021/11/04 05:01:05;;;;;;;0.95;0.65;;;11.00;83.60;;;;;;5033729;28;20117;-79
2021/11/04 05:03:30;;;;;;;0.75;0.55;;;11.10;83.60;;;;;;5034053;28;20079;-79
2021/11/04 05:05:56;;;;;;;0.52;0.43;;;11.20;83.50;;;;;;5033821;28;20083;-80
2021/11/04 05:08:22;;;;;;;1.60;1.50;;;11.20;83.30;;;;;;5033163;28;20026;-79
2021/11/04 05:10:48;;;;;;;0.28;0.20;;;11.20;83.20;;;;;;5033437;28;20021;-80
2021/11/04 05:13:14;;;;;;;0.30;0.20;;;11.20;83.20;;;;;;5033662;28;20026;-79
2021/11/04 05:15:39;;;;;;;1.20;0.95;;;11.30;83.30;;;;;;5033416;28;20057;-79
2021/11/04 05:18:07;;;;;;;0.30;0.30;;;11.30;83.20;;;;;;5033751;28;20097;-80
2021/11/04 05:20:34;;;;;;;1.60;0.70;;;11.40;82.90;;;;;;5034915;28;20415;-80
2021/11/04 05:22:59;;;;;;;0.47;0.32;;;11.40;82.80;;;;;;5037229;28;20377;-79
2021/11/04 05:25:25;;;;;;;1.10;0.82;;;11.40;82.80;;;;;;5037904;28;20029;-79
2021/11/04 05:27:51;;;;;;;1.10;0.88;;;11.50;82.80;;;;;;5037359;28;20385;-79
2021/11/04 05:30:18;;;;;;;2.28;1.55;;;11.40;82.70;;;;;;5035843;28;20028;-79
2021/11/04 05:32:45;;;;;;;2.40;1.05;;;11.50;82.90;;;;;;5037114;28;20481;-79
2021/11/04 05:35:11;;;;;;;2.30;2.10;;;11.50;83.00;;;;;;5037356;28;20022;-79
2021/11/04 05:37:37;;;;;;;0.70;0.70;;;11.60;83.00;;;;;;5037048;28;20107;-80
2021/11/04 05:40:04;;;;;;;1.92;1.10;;;11.60;83.00;;;;;;5035906;28;20080;-80
2021/11/04 05:42:30;;;;;;;0.95;0.50;;;11.70;83.10;;;;;;5037233;28;20025;-83
2021/11/04 05:44:55;;;;;;;2.83;1.90;;;11.80;83.30;;;;;;5037176;28;20461;-83
2021/11/04 05:47:21;;;;;;;2.92;2.22;;;11.90;82.80;;;;;;5037280;28;20036;-80
2021/11/04 05:49:47;;;;;;;2.08;1.80;;;11.90;82.30;;;;;;5019131;28;20029;-79
2021/11/04 05:52:13;;;;;;;2.58;2.15;;;11.80;81.80;;;;;;5036520;28;20021;-80
2021/11/04 05:54:39;;;;;;;3.45;2.10;;;11.70;81.90;;;;;;5036866;28;20067;-80
2021/11/04 05:57:05;;;;;;;0.85;0.85;;;11.70;82.40;;;;;;5037310;28;20065;-79
2021/11/04 05:59:30;;;;;;;3.13;2.00;;;11.60;82.70;;;;;;5038092;28;20025;-79
2021/11/04 06:01:56;;;;;;;2.25;1.90;;;11.60;82.70;;;;;;5027928;28;20034;-80
2021/11/04 06:04:22;;;;;;;3.20;2.15;;;11.60;82.60;;;;;;5026589;28;20026;-80
2021/11/04 06:06:49;;;;;;;2.20;1.67;;;11.50;82.90;;;;;;5026977;28;20114;-81
2021/11/04 06:09:15;;;;;;;3.13;2.50;;;11.50;83.20;;;;;;5025671;28;20057;-80
2021/11/04 06:11:41;;;;;;;1.00;0.90;;;11.60;83.40;;;;;;5026410;28;20036;-80
2021/11/04 06:14:07;;;;;;;1.95;1.40;;;11.60;83.60;;;;;;5027588;28;20029;-80
2021/11/04 06:16:33;;;;;;;0.95;0.90;;;11.60;83.50;;;;;;5026380;28;20034;-80
2021/11/04 06:18:59;;;;;;;1.45;1.08;;;11.70;83.80;;;;;;5016967;28;20534;-80
2021/11/04 06:21:25;;;;;;;3.17;2.20;;;11.80;83.80;;;;;;4999026;28;20029;-80
2021/11/04 06:23:51;;;;;;;3.47;2.65;;;11.90;83.40;;;;;;5016340;28;20053;-81
2021/11/04 06:26:17;;;;;;;2.55;1.73;;;12.00;82.80;;;;;;5016499;28;20084;-80
2021/11/04 06:28:43;;;;;;;2.25;1.85;;;11.90;82.60;;;;;;5016132;28;20029;-80
2021/11/04 06:31:09;;;;;;;2.80;1.92;;;11.90;82.40;;;;;;5015597;28;20109;-80
2021/11/04 06:33:35;;;;;;;1.98;1.55;;;11.80;82.70;;;;;;4999008;28;20064;-80
2021/11/04 06:36:01;;;;;;;3.00;1.90;;;11.80;82.70;;;;;;5016409;28;20025;-80
2021/11/04 06:38:27;;;;;;;1.75;1.20;;;11.70;83.20;;;;;;4998644;28;20046;-80
2021/11/04 06:40:53;;;;;;;2.80;1.58;;;11.80;83.70;;;;;;5016309;28;20354;-80
2021/11/04 06:43:19;;;;;;;2.90;1.65;;;11.90;83.80;;;;;;5016109;28;20108;-80
2021/11/04 06:45:50;;;;;;;0.68;0.50;;;11.90;83.70;;;;;;5016189;28;20026;-80
2021/11/04 06:48:42;;;;;;;1.63;0.90;;;11.90;84.30;;;;;;5016425;28;20022;-80
2021/11/04 06:51:11;;;;;;;1.73;1.15;;;12.20;84.80;;;;;;5011414;28;20096;-81
2021/11/04 06:53:46;;;;;;;1.77;1.58;;;12.30;84.10;;;;;;4998337;28;20029;-80
2021/11/04 06:56:12;;;;;;;;;;;12.50;83.20;;;;;;5016861;28;20038;-81
2021/11/04 06:58:38;;;;;;;1.63;1.08;;;12.50;82.70;;;;;;5015902;28;19913;-80
2021/11/04 07:01:15;;;;;;;0.88;0.75;;;12.50;82.20;;;;;;5015656;28;20544;-81
2021/11/04 07:04:09;;;;;;;1.70;1.23;;;12.50;83.00;;;;;;5015376;28;20033;-81
2021/11/04 07:06:43;;;;;;;2.00;1.55;;;12.50;82.40;;;;;;5015596;28;20477;-80
2021/11/04 07:09:09;;;;;;;1.98;1.20;;;12.50;82.20;;;;;;5015665;28;20029;-81
2021/11/04 07:11:35;;;;;;;2.47;1.30;;;12.40;82.10;;;;;;5015751;28;20034;-80
2021/11/04 07:14:00;;;;;;;1.95;1.42;;;12.40;82.30;;;;;;5015546;28;20022;-81
2021/11/04 07:16:28;;;;;;;1.75;1.27;;;12.40;82.50;;;;;;5015415;28;20125;-80
2021/11/04 07:18:56;;;;;;;2.13;1.33;;;12.40;82.60;;;;;;5015324;28;20526;-80
2021/11/04 07:21:26;;;;;;;1.58;1.25;;;12.40;82.40;;;;;;5015428;28;20029;-80
2021/11/04 07:24:01;;;;;;;1.42;0.90;;;12.40;82.70;;;;;;5015560;28;20026;-81
2021/11/04 07:26:35;;;;;;;1.60;0.73;;;12.40;83.00;;;;;;5015571;28;20034;-80
2021/11/04 07:29:01;;;;;;;1.25;0.80;;;12.50;83.30;;;;;;5015336;28;20034;-80
2021/11/04 07:31:28;;;;;;;1.00;0.50;;;12.60;83.30;;;;;;4997443;28;20030;-80
2021/11/04 07:33:55;;;;;;;0.35;0.20;;;12.70;83.20;;;;;;5015318;28;20034;-80
2021/11/04 07:36:23;;;;;;;0.17;0.17;;;12.80;83.30;;;;;;5015193;28;20034;-80
2021/11/04 07:38:50;;;;;;;1.60;1.50;;;12.90;83.00;;;;;;5014897;28;20393;-81
2021/11/04 07:41:16;;;;;;;0.50;0.30;;;13.10;82.50;;;;;;5015375;28;20109;-79
2021/11/04 07:43:41;;;;;;;0.60;0.10;;;13.10;82.20;;;;;;5013786;28;20053;-80
2021/11/04 07:46:07;;;;;;;0.43;0.43;;;13.20;82.30;;;;;;4997555;28;20022;-79
2021/11/04 07:48:33;;;;;;;0.82;0.60;;;13.30;81.80;;;;;;5014903;28;20048;-78
2021/11/04 07:50:59;;;;;;;0.70;0.70;;;13.30;81.30;;;;;;5014782;28;20036;-79
2021/11/04 07:53:26;;;;;;;0.93;0.80;;;13.40;81.00;;;;;;5014971;28;20080;-79
2021/11/04 07:55:54;;;;;;;0.60;0.60;;;13.30;80.80;;;;;;4999690;28;20022;-79
2021/11/04 07:58:20;;;;;;;0.60;0.60;;;13.30;80.80;;;;;;5022621;28;20036;-79
2021/11/04 08:00:48;;;;;;;0.20;0.20;;;13.20;80.90;;;;;;5023971;28;20018;-79
2021/11/04 08:03:14;;;;;;;0.40;0.30;;;13.20;81.40;;;;;;5024283;28;20137;-80
2021/11/04 08:05:40;;;;;;;1.00;0.95;;;13.30;81.30;;;;;;5022376;28;20105;-79
2021/11/04 08:08:06;;;;;;;0.22;0.17;;;13.30;81.40;;;;;;5023529;28;20025;-80
2021/11/04 08:10:32;;;;;;;0.47;0.47;;;13.30;81.50;;;;;;5006294;28;20056;-79
2021/11/04 08:13:03;;;;;;;0.32;0.20;;;13.40;81.20;;;;;;5022255;28;20021;-79
2021/11/04 08:15:29;;;;;;;0.50;0.40;;;13.50;81.00;;;;;;5023694;28;20021;-80
2021/11/04 08:17:54;;;;;;;0.17;0.10;;;13.60;80.80;;;;;;5032666;28;20037;-80
2021/11/04 08:20:20;;;;;;;0.30;0.30;;;13.70;80.50;;;;;;5027219;28;20468;-79
2021/11/04 08:22:46;;;;;;;0.30;0.30;;;13.70;80.50;;;;;;5022759;28;20022;-80
2021/11/04 08:25:11;;;;;;;0.10;0.10;;;13.80;80.10;;;;;;5023502;28;20442;-80
2021/11/04 08:27:37;;;;;;;0.00;0.00;;;13.80;80.10;;;;;;5024499;28;20029;-80
2021/11/04 08:30:05;;;;;;;0.00;0.00;;;13.80;80.00;;;;;;5022278;28;20109;-80
2021/11/04 08:32:31;;;;;;;0.10;0.00;;;13.90;79.90;;;;;;5023012;28;20029;-80
2021/11/04 08:34:57;;;;;;;0.00;0.00;;;14.00;80.00;;;;;;5024064;28;20152;-80
2021/11/04 08:37:23;;;;;;;0.00;0.00;;;14.00;79.80;;;;;;5022171;28;20029;-80
2021/11/04 08:39:48;;;;;;;0.00;0.00;;;14.10;79.70;;;;;;5022450;28;20172;-81
2021/11/04 08:42:15;;;;;;;0.00;0.00;;;14.10;79.70;;;;;;5023693;28;20547;-81
2021/11/04 08:44:41;;;;;;;0.00;0.00;;;14.30;79.50;;;;;;5021554;28;20466;-81
2021/11/04 08:47:09;;;;;;;0.00;0.00;;;14.40;79.40;;;;;;5021859;28;20034;-80
2021/11/04 08:49:36;;;;;;;0.00;0.00;;;14.50;79.00;;;;;;5021635;28;20030;-80
2021/11/04 08:52:02;;;;;;;0.00;0.00;;;14.60;78.70;;;;;;5022573;28;20041;-80
2021/11/04 08:54:29;;;;;;;0.00;0.00;;;14.80;78.70;;;;;;5022353;28;20026;-80
2021/11/04 08:56:55;;;;;;;0.00;0.00;;;14.90;78.10;;;;;;5021938;28;20066;-81
2021/11/04 08:59:21;;;;;;;0.00;0.00;;;15.00;77.80;;;;;;5023606;28;20492;-80
2021/11/04 09:01:48;;;;;;;0.00;0.00;;;15.10;77.40;;;;;;5022145;28;20026;-81
2021/11/04 09:04:13;;;;;;;0.00;0.00;;;15.10;76.80;;;;;;5022186;28;20037;-81
2021/11/04 09:06:40;;;;;;;0.00;0.00;;;15.20;76.90;;;;;;5023442;28;20079;-81
2021/11/04 09:09:07;;;;;;;0.00;0.00;;;15.30;76.40;;;;;;5021934;28;20032;-80
2021/11/04 09:11:34;;;;;;;0.00;0.00;;;15.30;76.10;;;;;;5022090;28;20052;-80
2021/11/04 09:14:00;;;;;;;0.00;0.00;;;15.40;76.00;;;;;;5023541;28;20037;-79
2021/11/04 09:16:26;;;;;;;0.00;0.00;;;15.50;75.60;;;;;;5020784;28;20038;-80
2021/11/04 09:18:52;;;;;;;0.03;0.00;;;15.50;75.50;;;;;;5013718;28;20400;-80
2021/11/04 09:21:19;;;;;;;0.00;0.00;;;15.60;75.60;;;;;;5013662;28;20116;-80
2021/11/04 09:23:45;;;;;;;0.00;0.00;;;15.90;75.90;;;;;;5018336;28;20033;-80
2021/11/04 09:26:10;;;;;;;0.00;0.00;;;16.30;75.40;;;;;;5024492;28;20026;-80
2021/11/04 09:28:36;;;;;;;0.00;0.00;;;16.60;74.20;;;;;;5013486;28;20026;-80
2021/11/04 09:31:02;;;;;;;0.00;0.00;;;16.70;73.50;;;;;;5013344;28;20033;-80
2021/11/04 09:33:29;;;;;;;0.00;0.00;;;16.80;73.00;;;;;;5013599;28;20034;-80
2021/11/04 09:35:54;;;;;;;0.00;0.00;;;16.90;72.40;;;;;;5032863;28;20087;-80
2021/11/04 09:38:20;;;;;;;0.00;0.00;;;17.00;72.10;;;;;;5032967;28;20924;-80
2021/11/04 09:40:46;;;;;;;0.00;0.00;;;17.20;71.50;;;;;;5032987;28;20064;-80
2021/11/04 09:43:13;;;;;;;0.00;0.00;;;17.30;70.90;;;;;;5024226;28;20053;-80
2021/11/04 09:45:39;;;;;;;0.00;0.00;;;17.40;70.40;;;;;;5032700;28;20026;-80
2021/11/04 09:48:05;;;;;;;0.00;0.00;;;17.50;70.00;;;;;;5032681;28;20108;-80
2021/11/04 09:50:32;;;;;;;0.00;0.00;;;17.60;69.80;;;;;;5032773;28;20075;-80
2021/11/04 09:52:57;;;;;;;0.00;0.00;;;17.70;69.60;;;;;;5025180;28;20030;-80
2021/11/04 09:55:27;;;;;;;0.00;0.00;;;17.90;68.90;;;;;;5024851;28;20029;-80
2021/11/04 09:57:56;;;;;;;0.00;0.00;;;18.20;68.70;;;;;;5032350;28;20389;-80
2021/11/04 10:00:30;;;;;;;0.00;0.00;;;18.60;68.20;;;;;;5031484;28;20116;-80
2021/11/04 10:03:06;;;;;;;0.00;0.00;;;19.20;67.70;;;;;;5032562;28;20021;-81
2021/11/04 10:05:42;;;;;;;0.00;0.00;;;20.20;65.90;;;;;;5023035;28;20426;-81
2021/11/04 10:08:09;;;;;;;0.00;0.00;;;21.40;62.80;;;;;;5017084;28;20113;-81
2021/11/04 10:10:35;;;;;;;0.00;0.00;;;22.50;60.80;;;;;;5016923;28;20068;-81
2021/11/04 10:13:04;;;;;;;0.00;0.00;;;23.50;58.20;;;;;;5016462;28;20113;-81
2021/11/04 10:15:32;;;;;;;0.00;0.00;;;24.30;55.60;;;;;;5028918;28;20025;-79
2021/11/04 10:18:14;;;;;;;0.00;0.00;;;24.80;53.80;;;;;;5036925;28;20072;-80
2021/11/04 10:20:41;;;;;;;0.00;0.00;;;24.90;52.40;;;;;;5036855;28;20373;-81
2021/11/04 10:23:14;;;;;;;0.00;0.00;;;25.10;52.60;;;;;;5036542;28;20025;-81
2021/11/04 10:25:41;;;;;;;0.00;0.00;;;25.20;51.30;;;;;;5036119;28;20363;-80
2021/11/04 10:28:38;;;;;;;0.00;0.00;;;25.10;51.10;;;;;;5019732;28;20042;-81
2021/11/04 10:31:06;;;;;;;0.00;0.00;;;24.90;50.70;;;;;;5019658;28;20050;-81
2021/11/04 10:33:34;;;;;;;0.00;0.00;;;24.80;50.90;;;;;;5016484;28;20193;-80
2021/11/04 10:36:06;;;;;;;0.00;0.00;;;24.60;50.70;;;;;;5014189;28;20076;-81
2021/11/04 10:38:46;;;;;;;0.00;0.00;;;24.20;50.90;;;;;;5015792;28;20076;-80
2021/11/04 10:41:40;;;;;;;0.00;0.00;;;23.70;51.30;;;;;;5016097;28;20036;-80
2021/11/04 10:46:45;;;;;;;0.00;0.00;;;22.70;52.80;;;;;;5032912;28;20060;-80
2021/11/04 10:49:11;;;;;;;0.00;0.00;;;22.20;53.70;;;;;;5035884;28;20021;-80
2021/11/04 10:51:39;;;;;;;0.00;0.00;;;21.70;54.60;;;;;;5032005;28;20034;-80
2021/11/04 10:54:16;;;;;;;0.00;0.00;;;21.30;55.10;;;;;;5035657;28;20032;-79
2021/11/04 10:56:45;;;;;;;0.00;0.00;;;21.00;55.80;;;;;;5036618;28;20069;-79
2021/11/04 10:59:13;;;;;;;0.00;0.00;;;20.90;56.50;;;;;;5035079;28;20033;-80
2021/11/04 11:02:04;;;;;;;0.00;0.00;;;21.00;56.90;;;;;;5029771;28;20351;-79
2021/11/04 11:04:34;;;;;;;0.00;0.00;;;21.40;56.70;;;;;;5032152;28;20480;-80
2021/11/04 11:07:00;;;;;;;0.00;0.00;;;22.30;55.80;;;;;;5024131;28;20363;-80
2021/11/04 11:09:33;;;;;;;0.00;0.00;;;23.00;54.80;;;;;;5025901;28;20433;-80
2021/11/04 11:12:04;;;;;;;0.00;0.00;;;23.50;53.20;;;;;;5026594;28;20026;-80
2021/11/04 11:14:37;;;;;;;0.00;0.00;;;24.20;52.60;;;;;;5025299;28;20025;-79
2021/11/04 11:17:07;;;;;;;0.00;0.00;;;24.80;51.50;;;;;;5024341;28;20041;-80
2021/11/04 11:19:39;;;;;;;0.00;0.00;;;25.40;50.60;;;;;;5018959;28;20056;-80
2021/11/04 11:22:06;;;;;;;0.00;0.00;;;25.90;49.30;;;;;;5033925;28;20082;-80
2021/11/04 11:24:36;;;;;;;0.00;0.00;;;25.90;48.70;;;;;;5035519;28;20045;-79
2021/11/04 11:27:05;;;;;;;0.00;0.00;;;25.50;48.50;;;;;;5031434;28;20040;-79
2021/11/04 11:29:42;;;;;;;0.00;0.00;;;25.10;48.60;;;;;;5035248;28;20052;-79
2021/11/04 11:32:24;;;;;;;0.00;0.00;;;24.70;48.90;;;;;;5031185;28;20033;-80
2021/11/04 11:35:10;;;;;;;0.00;0.00;;;24.20;49.50;;;;;;5034954;28;20414;-80
2021/11/04 11:37:43;;;;;;;0.00;0.00;;;24.00;50.30;;;;;;5032071;28;20036;-81
2021/11/04 11:40:13;;;;;;;0.00;0.00;;;23.90;50.80;;;;;;5015370;28;20044;-80
2021/11/04 11:42:56;;;;;;;0.00;0.00;;;24.50;50.50;;;;;;5014481;28;20025;-82
2021/11/04 11:45:23;;;;;;;0.00;0.00;;;24.90;49.30;;;;;;5009234;28;20030;-80
2021/11/04 11:47:48;;;;;;;0.00;0.00;;;24.80;49.00;;;;;;5034699;28;20101;-80
2021/11/04 11:50:14;;;;;;;0.00;0.00;;;24.40;49.10;;;;;;5034059;28;20108;-80
2021/11/04 11:52:59;;;;;;;0.00;0.00;;;24.20;49.80;;;;;;5027644;28;20461;-79
2021/11/04 11:55:45;;;;;;;0.00;0.00;;;24.40;49.90;;;;;;5014565;28;20034;-79
2021/11/04 11:58:14;;;;;;;0.00;0.00;;;25.30;49.20;;;;;;5022861;28;20046;-79
2021/11/04 12:00:51;;;;;;;0.00;0.00;;;26.10;48.40;;;;;;5034586;28;20329;-79
2021/11/04 12:03:32;;;;;;;0.00;0.00;;;26.90;46.80;;;;;;5029100;28;20034;-80
2021/11/04 12:06:00;;;;;;;0.00;0.00;;;27.20;45.90;;;;;;5026460;28;20038;-79
2021/11/04 12:08:28;;;;;;;0.00;0.00;;;27.40;45.90;;;;;;5014618;28;20026;-79
2021/11/04 12:11:04;;;;;;;0.00;0.00;;;27.80;45.30;;;;;;5009027;28;20045;-80
2021/11/04 12:13:37;;;;;;;0.00;0.00;;;28.10;44.70;;;;;;5014811;28;20096;-79
2021/11/04 12:16:12;;;;;;;0.00;0.00;;;28.20;44.10;;;;;;5011787;28;20030;-80
2021/11/04 12:18:55;;;;;;;0.00;0.00;;;28.00;44.10;;;;;;5014354;28;20022;-79
2021/11/04 12:21:28;;;;;;;0.00;0.00;;;27.50;44.10;;;;;;5014020;28;20038;-80
2021/11/04 12:24:02;;;;;;;0.00;0.00;;;27.30;44.60;;;;;;5029170;28;20061;-79
2021/11/04 12:26:28;;;;;;;0.00;0.00;;;27.30;44.80;;;;;;5012632;28;20080;-80
2021/11/04 12:28:54;;;;;;;0.00;0.00;;;27.60;44.90;;;;;;5006120;28;20426;-80
2021/11/04 12:31:23;;;;;;;0.00;0.00;;;27.70;44.50;;;;;;5026411;28;20021;-80
2021/11/04 12:33:53;;;;;;;0.00;0.00;;;27.80;44.40;;;;;;5049526;28;20087;-80
2021/11/04 12:36:43;;;;;;;0.00;0.00;;;27.80;44.20;;;;;;5028965;28;20038;-79
2021/11/04 12:39:24;;;;;;;0.00;0.00;;;28.00;43.80;;;;;;5024331;28;20393;-79
2021/11/04 12:41:52;;;;;;;0.00;0.00;;;28.10;43.60;;;;;;5033768;28;20032;-79
2021/11/04 12:44:23;;;;;;;0.00;0.00;;;28.20;43.70;;;;;;5034081;28;20029;-79
2021/11/04 12:46:49;;;;;;;0.00;0.00;;;28.00;43.50;;;;;;5033788;28;20041;-79
2021/11/04 12:49:16;;;;;;;0.00;0.00;;;27.70;43.80;;;;;;5033759;28;20104;-78
2021/11/04 12:51:48;;;;;;;0.00;0.00;;;27.20;44.10;;;;;;5049215;28;20092;-79
2021/11/04 12:54:20;;;;;;;0.00;0.00;;;26.80;44.50;;;;;;5033296;28;20036;-87
2021/11/04 12:56:53;;;;;;;0.00;0.00;;;26.50;45.20;;;;;;5032354;28;20033;-88